Aérodrome :
LOGIN :

S'inscrire | Disclaimer

   EN    FR    IT 

 










Légende :    VFR   VFR Marginal   IFR   IFR Intensif   IFR Très Intensif
Visi : 
Plafond : 
>= 8 km
>= 3000ft
5 à 8 km
1000 à 3000 ft
1500m à 5 km
500 à 1000 ft
800 à 1500m
200 à 500 ft
< 800m
< 200 ft
Symboles :   Orages  Brouillard  Fortes neiges  Fortes précipitations  Vent > 20 kt
SIGMETs :   Divers  Orages  Givrage  Turbulence  Onde Orograph.  Cendres Volcan.







- Altitude de l'aérodrome : 204 ft
- Code IATA : AGF
- Voir les cartes d'approche


LFBA - Agen

DERNIER METAR :
  • 242030Z AUTO 28003KT 6000 2500 NSC 22/14 Q1017 NOSIG

METARs EXPIRÉS :
  • 242000Z AUTO 27003KT 9999 0250 R29/P2000 // NSC 22/14 Q1017
  • 241930Z AUTO 31003KT CAVOK 23/14 Q1017 NOSIG
  • 241900Z AUTO 34004KT CAVOK 25/13 Q1017 NOSIG
  • 241830Z AUTO 36005KT 330V040 CAVOK 26/12 Q1017 NOSIG
  • 241800Z AUTO 34008KT CAVOK 27/12 Q1016 NOSIG

TAF TAF LFBA
Valide du 24 à 15h jusqu'au 25 à 00h UTC


241400Z 2415/2424 33005KT CAVOK
Pas de NOTAMs connus pour ce terrain.



MET'MAP, la Météo Aéronautique d'un coup d'oeil ! - Copyright ORBIFLY Décembre 2007 - Disclaimer

ORBIFLY MET'MAP TEAM :

Programmation & Développement : Alexandra Zaïnal
Conception & Développement : Baudouin d'Aumeries
Co-Programmation & Développement : Marc-Olivier Méhu
Soutien technique & logistique : Manuel Goepfert

Contact : metmap@orbifly.com




SOURCES & CREDITS :

   NOAA